createdAt,value
2023-04-12T00:01:44.967Z,16.15
2023-04-12T00:04:14.642Z,15.63
2023-04-12T00:06:42.316Z,16.40
2023-04-12T00:09:09.182Z,16.35
2023-04-12T00:11:36.723Z,15.82
2023-04-12T00:14:03.683Z,16.20
2023-04-12T00:16:30.701Z,17.30
2023-04-12T00:18:57.782Z,15.02
2023-04-12T00:21:24.841Z,17.15
2023-04-12T00:23:51.689Z,16.50
2023-04-12T00:26:18.808Z,16.77
2023-04-12T00:28:46.044Z,15.93
2023-04-12T00:31:13.107Z,16.42
2023-04-12T00:33:40.046Z,15.93
2023-04-12T00:36:07.412Z,15.77
2023-04-12T00:38:34.367Z,15.77
2023-04-12T00:41:01.501Z,16.48
2023-04-12T00:43:28.873Z,17.13
2023-04-12T00:45:58.004Z,16.25
2023-04-12T00:48:26.550Z,17.92
2023-04-12T00:50:55.681Z,15.38
2023-04-12T00:53:22.837Z,15.60
2023-04-12T00:55:50.903Z,14.55
2023-04-12T00:58:18.065Z,18.73
2023-04-12T01:00:50.438Z,16.02
2023-04-12T01:03:24.890Z,18.38
2023-04-12T01:06:37.362Z,16.65
2023-04-12T01:09:20.659Z,14.98
2023-04-12T01:12:05.109Z,16.50
2023-04-12T01:14:49.727Z,15.45
2023-04-12T01:17:24.974Z,17.02
2023-04-12T01:20:01.759Z,16.63
2023-04-12T01:23:14.680Z,16.90
2023-04-12T01:26:10.804Z,15.15
2023-04-12T01:28:41.744Z,16.50
2023-04-12T01:31:09.389Z,16.15
2023-04-12T01:33:40.917Z,17.67
2023-04-12T01:36:14.070Z,19.35
2023-04-12T01:38:42.602Z,16.90
2023-04-12T01:41:10.398Z,16.63
2023-04-12T01:43:44.999Z,16.17
2023-04-12T01:46:17.338Z,16.23
2023-04-12T01:48:50.866Z,16.38
2023-04-12T01:51:28.166Z,16.63
2023-04-12T01:54:00.047Z,16.35
2023-04-12T01:56:31.876Z,16.60
2023-04-12T01:59:00.954Z,17.55
2023-04-12T02:01:29.431Z,17.60
2023-04-12T02:03:59.655Z,20.10
2023-04-12T02:06:27.753Z,17.15
2023-04-12T02:09:06.019Z,17.38
2023-04-12T02:11:32.920Z,17.00
2023-04-12T02:13:59.992Z,16.83
2023-04-12T02:16:29.281Z,17.80
2023-04-12T02:18:59.503Z,18.20
2023-04-12T02:21:28.003Z,19.02
2023-04-12T02:23:55.375Z,17.67
2023-04-12T02:26:23.624Z,18.65
2023-04-12T02:28:50.689Z,18.88
2023-04-12T02:31:17.686Z,19.20
2023-04-12T02:33:45.934Z,17.15
2023-04-12T02:36:12.947Z,17.77
2023-04-12T02:38:39.831Z,17.20
2023-04-12T02:41:07.091Z,17.05
2023-04-12T02:43:34.154Z,17.35
2023-04-12T02:46:01.207Z,15.55
2023-04-12T02:48:28.181Z,15.88
2023-04-12T02:50:55.120Z,16.20
2023-04-12T02:53:22.196Z,16.45
2023-04-12T02:55:49.064Z,15.90
2023-04-12T02:58:16.646Z,16.55
2023-04-12T03:00:43.960Z,15.98
2023-04-12T03:03:12.171Z,17.25
2023-04-12T03:05:39.728Z,17.83
2023-04-12T03:08:06.772Z,16.17
2023-04-12T03:10:33.701Z,16.58
2023-04-12T03:13:00.574Z,16.63
2023-04-12T03:15:28.289Z,16.85
2023-04-12T03:17:55.610Z,18.52
2023-04-12T03:20:25.231Z,17.25
2023-04-12T03:22:52.128Z,18.38
2023-04-12T03:25:19.263Z,17.45
2023-04-12T03:27:46.611Z,17.60
2023-04-12T03:30:13.693Z,17.60
2023-04-12T03:32:42.261Z,18.65
2023-04-12T03:35:10.228Z,17.30
2023-04-12T03:37:37.618Z,17.10
2023-04-12T03:40:06.323Z,16.38
2023-04-12T03:42:33.938Z,17.05
2023-04-12T03:45:01.439Z,16.70
2023-04-12T03:47:28.492Z,16.55
2023-04-12T03:50:10.290Z,15.43
2023-04-12T03:52:38.827Z,17.23
2023-04-12T03:55:07.881Z,16.38
2023-04-12T03:57:35.355Z,16.52
2023-04-12T04:00:02.721Z,16.27
2023-04-12T04:02:32.049Z,15.73
2023-04-12T04:04:59.268Z,15.35
2023-04-12T04:07:26.488Z,15.95
2023-04-12T04:09:55.214Z,15.93
2023-04-12T04:12:22.155Z,20.65
2023-04-12T04:14:49.112Z,15.27
2023-04-12T04:17:16.112Z,16.02
2023-04-12T04:19:43.005Z,15.50
2023-04-12T04:22:10.262Z,15.15
2023-04-12T04:24:39.189Z,16.00
2023-04-12T04:27:06.547Z,15.82
2023-04-12T04:29:33.977Z,16.50
2023-04-12T04:32:01.542Z,15.07
2023-04-12T04:34:28.666Z,16.33
2023-04-12T04:36:55.577Z,15.50
2023-04-12T04:39:23.060Z,15.45
2023-04-12T04:41:54.852Z,16.08
2023-04-12T04:44:22.432Z,16.75
2023-04-12T04:46:49.500Z,15.32
2023-04-12T04:49:16.732Z,15.20
2023-04-12T04:51:43.600Z,15.27
2023-04-12T04:54:10.683Z,16.40
2023-04-12T04:56:37.596Z,16.05
2023-04-12T04:59:04.611Z,15.20
2023-04-12T05:01:32.223Z,14.88
2023-04-12T05:03:59.290Z,15.65
2023-04-12T05:06:27.398Z,16.58
2023-04-12T05:08:54.401Z,14.98
2023-04-12T05:11:21.602Z,16.83
2023-04-12T05:13:48.537Z,15.43
2023-04-12T05:16:15.688Z,15.55
2023-04-12T05:18:42.597Z,15.38
2023-04-12T05:21:09.499Z,16.08
2023-04-12T05:23:37.981Z,14.63
2023-04-12T05:26:05.522Z,15.90
2023-04-12T05:28:32.473Z,16.55
2023-04-12T05:30:59.361Z,15.93
2023-04-12T05:33:26.447Z,15.10
2023-04-12T05:35:53.417Z,15.70
2023-04-12T05:38:20.476Z,16.25
2023-04-12T05:40:50.087Z,16.48
2023-04-12T05:43:17.860Z,16.20
2023-04-12T05:45:44.772Z,16.50
2023-04-12T05:48:11.735Z,15.63
2023-04-12T05:50:38.632Z,17.08
2023-04-12T05:53:06.072Z,15.82
2023-04-12T05:55:33.031Z,16.50
2023-04-12T05:58:00.023Z,17.50
2023-04-12T06:00:27.863Z,16.17
2023-04-12T06:02:55.096Z,15.27
2023-04-12T06:05:22.918Z,17.42
2023-04-12T06:07:49.931Z,15.90
2023-04-12T06:10:18.157Z,17.95
2023-04-12T06:12:45.265Z,16.80
2023-04-12T06:15:12.386Z,16.83
2023-04-12T06:17:39.367Z,16.55
2023-04-12T06:20:10.205Z,19.65
2023-04-12T06:22:37.793Z,16.75
2023-04-12T06:25:05.393Z,17.48
2023-04-12T06:27:32.338Z,16.67
2023-04-12T06:29:59.315Z,16.48
2023-04-12T06:32:26.558Z,16.75
2023-04-12T06:34:53.647Z,17.13
2023-04-12T06:37:21.731Z,16.55
2023-04-12T06:39:48.700Z,16.20
2023-04-12T06:42:15.833Z,15.82
2023-04-12T06:44:42.705Z,15.05
2023-04-12T06:47:09.675Z,17.38
2023-04-12T06:49:36.627Z,15.85
2023-04-12T06:52:03.558Z,15.90
2023-04-12T06:54:30.592Z,16.45
2023-04-12T06:56:57.740Z,15.88
2023-04-12T06:59:24.782Z,15.65
2023-04-12T07:01:51.979Z,16.13
2023-04-12T07:04:18.978Z,15.43
2023-04-12T07:06:46.274Z,16.13
2023-04-12T07:09:13.161Z,15.95
2023-04-12T07:11:40.067Z,14.75
2023-04-12T07:14:06.959Z,15.88
2023-04-12T07:16:34.199Z,15.07
2023-04-12T07:19:01.183Z,16.45
2023-04-12T07:21:28.287Z,14.70
2023-04-12T07:23:55.996Z,15.73
2023-04-12T07:26:23.672Z,14.85
2023-04-12T07:28:50.744Z,15.82
2023-04-12T07:31:17.783Z,15.02
2023-04-12T07:33:45.067Z,15.07
2023-04-12T07:36:12.304Z,14.57
2023-04-12T07:38:39.415Z,14.30
2023-04-12T07:41:06.410Z,13.77
2023-04-12T07:43:33.345Z,14.63
2023-04-12T07:46:04.540Z,14.57
2023-04-12T07:48:31.670Z,13.73
2023-04-12T07:50:58.631Z,14.35
2023-04-12T07:53:27.801Z,15.63
2023-04-12T07:55:56.040Z,14.52
2023-04-12T07:58:24.861Z,14.80
2023-04-12T08:00:53.779Z,15.02
2023-04-12T08:03:20.936Z,14.75
2023-04-12T08:05:53.438Z,15.88
2023-04-12T08:08:22.426Z,13.98
2023-04-12T08:10:49.943Z,13.73
2023-04-12T08:13:16.984Z,15.40
2023-04-12T08:15:44.005Z,15.18
2023-04-12T08:18:11.315Z,17.20
2023-04-12T08:20:40.621Z,17.52
2023-04-12T08:23:08.084Z,16.27
2023-04-12T08:25:35.097Z,17.20
2023-04-12T08:28:02.138Z,17.42
2023-04-12T08:30:29.108Z,16.23
2023-04-12T08:32:56.242Z,16.00
2023-04-12T08:35:23.491Z,16.67
2023-04-12T08:37:50.302Z,16.98
2023-04-12T08:40:17.408Z,16.98
2023-04-12T08:42:44.368Z,18.52
2023-04-12T08:45:12.490Z,16.90
2023-04-12T08:47:42.384Z,18.33
2023-04-12T08:50:13.158Z,16.15
2023-04-12T08:52:41.262Z,17.48
2023-04-12T08:55:09.427Z,16.88
2023-04-12T08:57:38.365Z,18.13
2023-04-12T09:00:08.371Z,17.85
2023-04-12T09:02:39.184Z,18.33
2023-04-12T09:05:07.391Z,18.10
2023-04-12T09:07:34.892Z,16.42
2023-04-12T09:10:02.221Z,17.02
2023-04-12T09:12:29.303Z,16.58
2023-04-12T09:15:28.801Z,16.77
2023-04-12T09:18:09.619Z,16.60
2023-04-12T09:20:37.761Z,16.02
2023-04-12T09:23:21.942Z,16.25
2023-04-12T09:25:51.823Z,14.70
2023-04-12T09:28:29.958Z,14.95
2023-04-12T09:30:58.828Z,15.55
2023-04-12T09:33:36.996Z,16.08
2023-04-12T09:36:06.101Z,15.70
2023-04-12T09:38:34.557Z,14.52
2023-04-12T09:41:22.236Z,15.07
2023-04-12T09:43:52.107Z,14.25
2023-04-12T09:46:19.086Z,14.00
2023-04-12T09:48:52.524Z,15.52
2023-04-12T09:51:32.955Z,14.68
2023-04-12T09:54:02.522Z,15.07
2023-04-12T09:56:32.352Z,15.60
2023-04-12T09:59:03.654Z,16.10
2023-04-12T10:01:36.358Z,15.75
2023-04-12T10:04:04.768Z,15.18
2023-04-12T10:06:33.772Z,14.40
2023-04-12T10:09:04.422Z,16.15
2023-04-12T10:11:34.055Z,15.00
2023-04-12T10:14:02.927Z,14.52
2023-04-12T10:16:31.229Z,14.40
2023-04-12T10:19:03.052Z,14.52
2023-04-12T10:21:31.237Z,13.60
2023-04-12T10:23:58.649Z,14.57
2023-04-12T10:26:25.609Z,13.38
2023-04-12T10:29:23.794Z,13.95
2023-04-12T10:31:50.837Z,14.05
2023-04-12T10:34:17.954Z,14.32
2023-04-12T10:36:54.814Z,13.52
2023-04-12T10:39:42.388Z,14.23
2023-04-12T10:42:28.426Z,13.98
2023-04-12T10:45:00.378Z,13.68
2023-04-12T10:47:57.040Z,13.48
2023-04-12T10:50:25.326Z,14.32
2023-04-12T10:53:13.744Z,14.13
2023-04-12T10:55:42.684Z,13.38
2023-04-12T10:58:09.670Z,14.25
2023-04-12T11:00:58.526Z,14.93
2023-04-12T11:03:26.733Z,14.73
2023-04-12T11:06:20.101Z,14.82
2023-04-12T11:08:56.504Z,14.27
2023-04-12T11:11:25.458Z,15.93
2023-04-12T11:13:57.004Z,13.73
2023-04-12T11:16:24.058Z,14.73
2023-04-12T11:18:51.196Z,14.57
2023-04-12T11:21:19.299Z,16.00
2023-04-12T11:23:46.804Z,14.68
2023-04-12T11:26:20.351Z,15.50
2023-04-12T11:28:48.269Z,15.18
2023-04-12T11:31:15.256Z,15.70
2023-04-12T11:33:42.381Z,14.82
2023-04-12T11:36:12.791Z,14.80
2023-04-12T11:38:40.744Z,15.77
2023-04-12T11:41:09.360Z,15.85
2023-04-12T11:43:38.791Z,15.07
2023-04-12T11:46:06.157Z,14.85
2023-04-12T11:48:33.774Z,14.57
2023-04-12T11:51:10.811Z,15.85
2023-04-12T11:53:38.259Z,15.60
2023-04-12T11:56:05.975Z,15.95
2023-04-12T11:58:33.439Z,15.35
2023-04-12T12:01:00.914Z,14.77
2023-04-12T12:03:28.503Z,15.75
2023-04-12T12:05:56.562Z,15.00
2023-04-12T12:08:24.501Z,14.07
2023-04-12T12:11:03.965Z,16.05
2023-04-12T12:13:49.051Z,14.00
2023-04-12T12:16:17.591Z,15.10
2023-04-12T12:18:45.969Z,13.77
2023-04-12T12:21:14.253Z,14.45
2023-04-12T12:23:43.919Z,15.07
2023-04-12T12:26:19.517Z,14.27
2023-04-12T12:28:53.310Z,14.88
2023-04-12T12:31:31.248Z,14.13
2023-04-12T12:34:00.305Z,13.25
2023-04-12T12:36:36.175Z,13.63
2023-04-12T12:39:12.984Z,12.57
2023-04-12T12:41:41.180Z,13.50
2023-04-12T12:44:08.696Z,12.63
2023-04-12T12:49:06.143Z,12.77
2023-04-12T12:51:33.214Z,13.15
2023-04-12T12:54:01.003Z,11.73
2023-04-12T12:56:28.009Z,12.45
2023-04-12T12:58:55.077Z,14.25
2023-04-12T13:01:22.077Z,11.63
2023-04-12T13:03:49.121Z,12.80
2023-04-12T13:06:16.115Z,14.13
2023-04-12T13:08:43.007Z,11.90
2023-04-12T13:11:09.878Z,11.38
2023-04-12T13:13:36.981Z,12.13
2023-04-12T13:16:04.166Z,11.50
2023-04-12T13:18:31.308Z,12.68
2023-04-12T13:20:58.218Z,12.25
2023-04-12T13:23:25.102Z,11.95
2023-04-12T13:25:53.153Z,12.35
2023-04-12T13:28:20.910Z,12.15
2023-04-12T13:30:48.882Z,12.68
2023-04-12T13:33:20.061Z,11.93
2023-04-12T13:35:48.686Z,11.93
2023-04-12T13:38:15.683Z,12.52
2023-04-12T13:40:42.567Z,10.70
2023-04-12T13:43:09.474Z,11.77
2023-04-12T13:45:36.814Z,11.05
2023-04-12T13:48:03.977Z,11.65
2023-04-12T13:50:31.062Z,11.68
2023-04-12T13:52:57.943Z,11.85
2023-04-12T13:55:24.896Z,11.65
2023-04-12T13:57:51.995Z,11.25
2023-04-12T14:00:19.782Z,11.20
2023-04-12T14:02:46.894Z,11.35
2023-04-12T14:05:14.029Z,10.60
2023-04-12T14:07:40.965Z,10.93
2023-04-12T14:10:08.510Z,11.80
2023-04-12T14:12:35.428Z,12.23
2023-04-12T14:15:03.731Z,9.77
2023-04-12T14:17:32.788Z,11.25
2023-04-12T14:20:00.652Z,10.18
2023-04-12T14:22:28.081Z,10.15
2023-04-12T14:24:55.274Z,10.57
2023-04-12T14:27:22.479Z,10.20
2023-04-12T14:29:49.607Z,11.73
2023-04-12T14:32:16.569Z,11.57
2023-04-12T14:34:43.663Z,10.98
2023-04-12T14:37:10.950Z,11.75
2023-04-12T14:39:37.966Z,11.95
2023-04-12T14:42:06.143Z,11.63
2023-04-12T14:44:33.072Z,11.43
2023-04-12T14:46:59.974Z,10.88
2023-04-12T14:49:29.480Z,11.68
2023-04-12T14:51:57.700Z,11.82
2023-04-12T14:54:24.649Z,11.35
2023-04-12T14:56:54.981Z,11.88
2023-04-12T14:59:23.548Z,11.18
2023-04-12T15:01:52.587Z,11.93
2023-04-12T15:04:20.355Z,11.30
2023-04-12T15:06:47.407Z,12.15
2023-04-12T15:09:15.743Z,12.20
2023-04-12T15:11:46.555Z,12.43
2023-04-12T15:14:20.069Z,12.02
2023-04-12T15:16:49.253Z,12.48
2023-04-12T15:19:20.681Z,13.52
2023-04-12T15:21:51.145Z,12.80
2023-04-12T15:24:19.383Z,14.07
2023-04-12T15:26:48.502Z,13.95
2023-04-12T15:29:16.602Z,13.73
2023-04-12T15:31:43.834Z,14.90
2023-04-12T15:34:11.679Z,12.52
2023-04-12T15:36:40.885Z,11.70
2023-04-12T15:39:07.853Z,14.57
2023-04-12T15:41:38.596Z,11.98
2023-04-12T15:44:06.874Z,13.48
2023-04-12T15:46:34.686Z,13.02
2023-04-12T15:49:02.630Z,14.00
2023-04-12T15:51:29.964Z,13.38
2023-04-12T15:53:57.428Z,12.57
2023-04-12T15:56:25.387Z,12.70
2023-04-12T15:58:57.353Z,13.45
2023-04-12T16:01:25.343Z,12.63
2023-04-12T16:03:53.280Z,12.25
2023-04-12T16:06:20.957Z,12.10
2023-04-12T16:08:48.630Z,12.18
2023-04-12T16:11:17.216Z,12.52
2023-04-12T16:13:45.738Z,13.02
2023-04-12T16:16:13.462Z,12.88
2023-04-12T16:18:41.704Z,13.25
2023-04-12T16:21:10.088Z,12.27
2023-04-12T16:23:37.957Z,13.05
2023-04-12T16:26:06.086Z,12.52
2023-04-12T16:28:33.663Z,13.13
2023-04-12T16:31:01.068Z,13.15
2023-04-12T16:33:28.147Z,13.00
2023-04-12T16:35:55.047Z,13.60
2023-04-12T16:38:22.315Z,13.15
2023-04-12T16:40:49.414Z,12.77
2023-04-12T16:43:17.093Z,13.75
2023-04-12T16:45:46.382Z,13.68
2023-04-12T16:48:14.586Z,14.63
2023-04-12T16:50:44.987Z,13.93
2023-04-12T16:53:12.248Z,13.95
2023-04-12T16:55:49.605Z,13.68
2023-04-12T16:58:16.514Z,14.02
2023-04-12T17:00:43.336Z,12.95
2023-04-12T17:03:14.643Z,13.77
2023-04-12T17:05:41.572Z,14.00
2023-04-12T17:08:09.799Z,12.93
2023-04-12T17:10:37.119Z,14.75
2023-04-12T17:13:04.570Z,15.63
2023-04-12T17:15:31.768Z,15.38
2023-04-12T17:18:07.347Z,14.82
2023-04-12T17:20:34.340Z,15.27
2023-04-12T17:23:02.039Z,14.27
2023-04-12T17:25:31.440Z,13.80
2023-04-12T17:28:02.479Z,14.80
2023-04-12T17:30:29.827Z,15.55
2023-04-12T17:32:57.656Z,15.63
2023-04-12T17:35:24.585Z,14.85
2023-04-12T17:37:51.511Z,14.93
2023-04-12T17:40:18.762Z,14.90
2023-04-12T17:42:45.975Z,13.07
2023-04-12T17:45:14.601Z,14.40
2023-04-12T17:47:42.622Z,13.82
2023-04-12T17:50:13.621Z,14.38
2023-04-12T17:52:40.554Z,14.15
2023-04-12T17:55:10.021Z,14.02
2023-04-12T17:57:36.943Z,15.13
2023-04-12T18:00:14.251Z,14.60
2023-04-12T18:02:43.286Z,15.30
2023-04-12T18:05:11.371Z,14.30
2023-04-12T18:07:40.158Z,14.65
2023-04-12T18:10:09.103Z,13.80
2023-04-12T18:12:36.442Z,14.32
2023-04-12T18:15:03.986Z,15.68
2023-04-12T18:17:31.074Z,14.90
2023-04-12T18:19:58.423Z,16.63
2023-04-12T18:22:25.977Z,14.07
2023-04-12T18:24:53.672Z,16.20
2023-04-12T18:27:20.572Z,14.80
2023-04-12T18:29:47.509Z,14.23
2023-04-12T18:32:15.088Z,13.70
2023-04-12T18:34:41.942Z,13.77
2023-04-12T18:37:08.862Z,14.38
2023-04-12T18:39:36.681Z,14.48
2023-04-12T18:42:03.716Z,14.50
2023-04-12T18:44:31.040Z,14.68
2023-04-12T18:46:57.993Z,14.52
2023-04-12T18:49:25.946Z,14.98
2023-04-12T18:51:53.733Z,15.68
2023-04-12T18:54:21.182Z,15.77
2023-04-12T18:56:48.225Z,14.85
2023-04-12T18:59:17.837Z,14.55
2023-04-12T19:01:45.988Z,13.55
2023-04-12T19:04:13.108Z,15.23
2023-04-12T19:06:40.073Z,16.33
2023-04-12T19:09:08.385Z,15.13
2023-04-12T19:11:37.043Z,13.82
2023-04-12T19:14:04.549Z,16.05
2023-04-12T19:16:32.188Z,14.82
2023-04-12T19:19:00.419Z,15.60
2023-04-12T19:21:31.624Z,16.35
2023-04-12T19:23:58.855Z,15.13
2023-04-12T19:26:28.726Z,15.63
2023-04-12T19:28:58.290Z,14.70
2023-04-12T19:31:25.738Z,15.23
2023-04-12T19:33:53.961Z,14.85
2023-04-12T19:36:21.080Z,13.45
2023-04-12T19:38:49.012Z,15.02
2023-04-12T19:41:17.931Z,14.60
2023-04-12T19:43:44.827Z,15.95
2023-04-12T19:46:11.869Z,14.10
2023-04-12T19:48:38.900Z,14.35
2023-04-12T19:51:08.732Z,15.15
2023-04-12T19:53:35.685Z,14.23
2023-04-12T19:56:04.340Z,14.75
2023-04-12T19:58:32.206Z,12.95
2023-04-12T20:01:02.293Z,13.38
2023-04-12T20:03:30.086Z,14.18
2023-04-12T20:05:59.141Z,13.93
2023-04-12T20:08:28.524Z,15.35
2023-04-12T20:10:56.180Z,15.00
2023-04-12T20:13:23.198Z,14.18
2023-04-12T20:15:51.045Z,14.63
2023-04-12T20:18:18.001Z,14.57
2023-04-12T20:20:45.411Z,13.00
2023-04-12T20:23:13.932Z,13.95
2023-04-12T20:25:41.701Z,14.95
2023-04-12T20:28:09.425Z,13.50
2023-04-12T20:30:36.881Z,13.27
2023-04-12T20:33:04.363Z,14.35
2023-04-12T20:35:31.484Z,13.52
2023-04-12T20:37:58.466Z,13.90
2023-04-12T20:40:28.046Z,12.75
2023-04-12T20:42:55.563Z,14.20
2023-04-12T20:45:23.463Z,13.95
2023-04-12T20:47:51.114Z,12.68
2023-04-12T20:50:22.403Z,12.05
2023-04-12T20:52:50.505Z,13.48
2023-04-12T20:55:17.576Z,12.38
2023-04-12T20:57:44.479Z,12.63
2023-04-12T21:00:18.227Z,11.48
2023-04-12T21:02:46.392Z,12.43
2023-04-12T21:05:16.817Z,12.07
2023-04-12T21:07:43.862Z,12.50
2023-04-12T21:10:14.959Z,13.48
2023-04-12T21:12:42.738Z,12.18
2023-04-12T21:15:11.756Z,12.57
2023-04-12T21:17:40.714Z,14.15
2023-04-12T21:20:17.324Z,12.90
2023-04-12T21:22:46.066Z,13.43
2023-04-12T21:25:16.123Z,12.68
2023-04-12T21:27:43.985Z,12.93
2023-04-12T21:30:11.701Z,13.40
2023-04-12T21:32:39.298Z,13.15
2023-04-12T21:35:07.346Z,12.88
2023-04-12T21:37:36.039Z,12.90
2023-04-12T21:40:07.856Z,12.43
2023-04-12T21:42:38.902Z,12.57
2023-04-12T21:45:07.055Z,12.40
2023-04-12T21:47:34.035Z,13.25
2023-04-12T21:50:01.454Z,12.48
2023-04-12T21:52:28.410Z,12.52
2023-04-12T21:54:55.883Z,11.40
2023-04-12T21:57:22.824Z,10.23
2023-04-12T21:59:49.774Z,11.30
2023-04-12T22:02:16.977Z,11.32
2023-04-12T22:04:44.068Z,11.40
2023-04-12T22:07:12.986Z,10.95
2023-04-12T22:09:41.507Z,10.23
2023-04-12T22:12:09.217Z,10.93
2023-04-12T22:14:37.053Z,10.30
2023-04-12T22:17:06.068Z,10.40
2023-04-12T22:19:33.069Z,11.27
2023-04-12T22:21:59.932Z,9.57
2023-04-12T22:24:26.860Z,10.23
2023-04-12T22:26:57.506Z,10.90
2023-04-12T22:29:25.419Z,11.10
2023-04-12T22:31:52.836Z,9.63
2023-04-12T22:34:21.937Z,9.95
2023-04-12T22:36:52.087Z,9.75
2023-04-12T22:39:20.068Z,9.68
2023-04-12T22:41:49.984Z,10.13
2023-04-12T22:44:18.420Z,10.23
2023-04-12T22:46:48.653Z,9.43
2023-04-12T22:49:20.045Z,10.25
2023-04-12T22:51:46.986Z,9.45
2023-04-12T22:54:13.998Z,10.75
2023-04-12T22:56:47.081Z,9.70
2023-04-12T22:59:15.414Z,9.82
2023-04-12T23:01:42.602Z,9.95
2023-04-12T23:04:09.993Z,9.55
2023-04-12T23:06:39.953Z,9.10
2023-04-12T23:09:07.742Z,8.75
2023-04-12T23:11:39.813Z,9.48
2023-04-12T23:14:07.686Z,9.02
2023-04-12T23:16:35.517Z,8.85
2023-04-12T23:19:05.239Z,8.88
2023-04-12T23:21:32.669Z,9.52
2023-04-12T23:23:59.680Z,8.65
2023-04-12T23:26:27.314Z,8.23
2023-04-12T23:28:54.242Z,8.82
2023-04-12T23:31:21.164Z,8.18
2023-04-12T23:33:48.015Z,8.98
2023-04-12T23:36:14.918Z,8.80
2023-04-12T23:38:44.448Z,8.15
2023-04-12T23:41:12.623Z,8.25
2023-04-12T23:43:39.786Z,8.23
2023-04-12T23:46:06.980Z,7.53
2023-04-12T23:48:33.935Z,7.60
2023-04-12T23:51:00.808Z,7.65
2023-04-12T23:53:27.679Z,8.00
2023-04-12T23:55:54.797Z,8.07
2023-04-12T23:58:22.204Z,7.35
